Tropical Cyclones
[Index]
Main Index Home Page Stock Weather Photos Extreme Storms Discussion Storm News and Storm Chasing Reports Tropical Cyclones / Hurricanes / Typhoons Weather Data and Links Wild Fires / Bushfires Weather Observation Techniques Weather Picture Catalogue Tornado Pictures and Reports Stock Video Footage and DVDs for sale
Season 2016-2017 Tropical Cyclone 201617_06 Track Map
Season 2016-2017 Summaries: [BoM-AU]
<<- Previous TC | BoM 2016-2017 Season | Next TC ->>

click for intensity scale information  Lat/long Grid: Show Hide

 Date Labels: Show Hide

Bureau of Meteorology Tropical Cyclone Data

Name: 201617_06
Number: 994 / 201617_06

18 Dec 2016 06:00 UTC to 23 Dec 2016 00:00 UTC

    date/time    lat    long    hPa   cat  kts
2016-12-18 06   10.5   129.5   1004         15          
2016-12-18 12   11.0   129.0   1006         15          
2016-12-18 18   11.4   129.3   1004         15          
2016-12-18 21   11.6   129.4   1003         15          
2016-12-19 00   11.6   129.3   1003         15          
2016-12-19 03   11.8   129.3   1002         15          
2016-12-19 06   11.8   129.8   1002         15          
2016-12-19 09   11.8   129.9   1002         15          
2016-12-19 12   11.8   129.7   1003         15          
2016-12-19 15   11.9   129.7   1002         15          
2016-12-19 18   12.1   129.9   1000         15          
2016-12-19 21   12.2   129.8   1000         15          
2016-12-20 00   12.4   129.3   1000         20          
2016-12-20 03   12.6   129.0    998         20          
2016-12-20 06   13.0   129.0    997         20          
2016-12-20 09   13.2   128.9    996         20          
2016-12-20 12   13.8   128.7    997         20          
2016-12-20 15   14.3   128.6    997         25          
2016-12-20 18   14.7   128.5    995    1    30          
2016-12-20 21   15.2   128.4    996         30          
2016-12-21 00   15.5   128.4    997         30          
2016-12-21 03   15.6   128.1    997         30          
2016-12-21 06   15.8   127.9    996         30          
2016-12-21 12   16.6   127.6    996         30          
2016-12-21 18   17.7   126.7    997         30          
2016-12-22 00   18.2   126.0    996         30          
2016-12-22 06   18.5   125.0    994    1    30          
2016-12-22 12   19.5   124.0    996         30          
2016-12-22 18   19.8   123.7    996         30          
2016-12-23 00   20.5   124.0    995    1    30          
Winds are 10-min average.

Tropical cyclone tracks developed by Michael Bath using data from the Bureau of Meteorology and Google Maps.


[Australian Severe Weather index] [Copyright Notice] [Email Contacts] [Search This Site] [Privacy Policy]
Document: tropical_cyclone_201617_06.htm Updated: 29 June 2017